Etusivu
METAR-TAF:

METAR-TAF

Lentoasemat :

Sky Harbor Airport

Duluth, Minnesota, Yhdysvallat

Leveyspiiri: 46-43-19N, Pituuspiiri: 092-02-36W, korkeus merenpinnasta: 186 m

Tämänhetkinen sää

Tämä raportti tehtiin 13 minuuttia sitten, kello 10.35 UTC
Tuuli 7 kn lännestä/lounaasta
Lämpötila -15°C
Kosteus 78%
Ilmanpaine 1034 hPa
Näkyvyys: 16.1 km
Pilvistä 5000 ft:n korkeudessa

METAR: KDYT 121035Z AUTO 24007KT 10SM OVC050 M15/M18 A3052 RMK AO2

Aika: 04:48 (10:48 UTC)


TAF: puuttuu

Säähavainnot ja -ennusteet yli 4000 lentoasemalta (METAR- ja TAF-raportit).

Käytössä olevat sääasemat on merkitty karttaan keltaisilla ja punaisilla pisteillä.

Aseta hiiri pisteen päälle nähdäksesi sääaseman nimen.

Klikkaa sitten nähdäksesi säähavainnot ja -ennusteet.

Kartan vaihtaminen: klikkaa mustalla rastilla varustettuja vihreitä pisteitä, niin voit zoomata sisään; viivalla varustettua vihreää pistettä, niin voit zoomata ulos tai vihreitä nuolia, niin pääset viereisille kartoille.


METAR-TAF: